Terminal Aerodrome Forecast
Issued by NWS

Home | Current Version | Previous Version | Text Only | Print | Product List | Glossary On
Versions: 1 2 3 4 5 6 7 8 9 10 11 12 13 14 15 16 17 18
000
FTUS44 KBMX 250100 AAA
TAFMGM
TAF AMD
KMGM 250103Z 2501/2524 22007KT P6SM SCT035
     FM250200 00000KT P6SM SCT050
     FM250900 00000KT 3SM BR OVC005
     FM251400 26003KT P6SM VCSH BKN035=

USA.gov is the U.S. government's official web portal to all federal, state and local government web resources and services.